createdAt,value
2022-09-12T00:01:49.604Z,4.18
2022-09-12T00:04:13.182Z,3.60
2022-09-12T00:06:38.675Z,4.15
2022-09-12T00:09:08.347Z,4.15
2022-09-12T00:11:32.267Z,3.97
2022-09-12T00:13:58.367Z,3.95
2022-09-12T00:16:25.544Z,3.85
2022-09-12T00:18:49.741Z,4.38
2022-09-12T00:21:13.947Z,4.75
2022-09-12T00:23:37.477Z,4.82
2022-09-12T00:26:05.858Z,4.15
2022-09-12T00:28:29.380Z,4.10
2022-09-12T00:30:52.982Z,4.00
2022-09-12T00:33:19.000Z,3.65
2022-09-12T00:35:44.634Z,3.88
2022-09-12T00:38:08.176Z,4.07
2022-09-12T00:40:31.754Z,4.03
2022-09-12T00:42:56.663Z,4.15
2022-09-12T00:45:26.023Z,4.03
2022-09-12T00:47:49.623Z,3.83
2022-09-12T00:50:16.358Z,4.32
2022-09-12T00:52:46.159Z,4.80
2022-09-12T00:55:14.736Z,4.38
2022-09-12T00:57:46.150Z,4.40
2022-09-12T01:00:16.162Z,3.80
2022-09-12T01:02:39.996Z,4.30
2022-09-12T01:05:03.649Z,3.97
2022-09-12T01:07:27.806Z,3.65
2022-09-12T01:09:51.563Z,3.53
2022-09-12T01:12:16.872Z,4.15
2022-09-12T01:14:41.131Z,4.25
2022-09-12T01:17:06.214Z,4.13
2022-09-12T01:20:24.050Z,4.68
2022-09-12T01:23:41.783Z,4.68
2022-09-12T01:26:39.685Z,4.32
2022-09-12T01:29:31.620Z,4.40
2022-09-12T01:32:06.801Z,4.20
2022-09-12T01:34:44.447Z,3.53
2022-09-12T01:37:16.538Z,4.45
2022-09-12T01:39:54.766Z,4.60
2022-09-12T01:42:25.923Z,4.47
2022-09-12T01:44:56.530Z,3.70
2022-09-12T01:47:30.830Z,4.22
2022-09-12T01:50:03.106Z,4.75
2022-09-12T01:52:31.790Z,4.35
2022-09-12T01:55:02.105Z,4.90
2022-09-12T01:57:33.388Z,4.57
2022-09-12T02:00:01.916Z,4.50
2022-09-12T02:02:34.916Z,4.22
2022-09-12T02:05:03.922Z,4.55
2022-09-12T02:07:32.883Z,4.60
2022-09-12T02:10:01.549Z,4.40
2022-09-12T02:12:33.135Z,4.55
2022-09-12T02:15:03.928Z,4.63
2022-09-12T02:17:31.258Z,4.43
2022-09-12T02:20:00.281Z,4.57
2022-09-12T02:22:27.203Z,4.15
2022-09-12T02:24:56.303Z,4.40
2022-09-12T02:27:25.243Z,4.13
2022-09-12T02:29:49.928Z,3.95
2022-09-12T02:32:26.570Z,4.50
2022-09-12T02:34:59.661Z,4.68
2022-09-12T02:37:35.463Z,4.72
2022-09-12T02:40:00.378Z,4.30
2022-09-12T02:42:24.731Z,5.00
2022-09-12T02:44:48.482Z,4.40
2022-09-12T02:47:18.354Z,3.83
2022-09-12T02:49:41.978Z,4.82
2022-09-12T02:52:07.118Z,5.43
2022-09-12T02:54:31.818Z,4.82
2022-09-12T02:56:55.557Z,4.60
2022-09-12T02:59:22.604Z,5.70
2022-09-12T03:02:07.605Z,5.70
2022-09-12T03:04:48.943Z,5.65
2022-09-12T03:07:22.961Z,5.00
2022-09-12T03:09:51.290Z,4.72
2022-09-12T03:12:30.358Z,5.15
2022-09-12T03:15:10.944Z,5.70
2022-09-12T03:17:50.676Z,6.22
2022-09-12T03:20:18.060Z,6.50
2022-09-12T03:22:54.061Z,5.80
2022-09-12T03:25:22.765Z,5.45
2022-09-12T03:27:55.284Z,5.22
2022-09-12T03:30:19.306Z,4.53
2022-09-12T03:32:45.167Z,5.75
2022-09-12T03:35:09.626Z,6.00
2022-09-12T03:37:33.189Z,5.43
2022-09-12T03:39:58.265Z,5.65
2022-09-12T03:42:21.873Z,6.72
2022-09-12T03:44:45.521Z,7.07
2022-09-12T03:47:11.276Z,6.28
2022-09-12T03:49:35.114Z,6.10
2022-09-12T03:51:58.601Z,5.35
2022-09-12T03:54:22.162Z,6.10
2022-09-12T03:56:47.055Z,6.20
2022-09-12T03:59:10.776Z,6.20
2022-09-12T04:01:34.943Z,5.82
2022-09-12T04:03:58.567Z,6.35
2022-09-12T04:06:24.110Z,5.72
2022-09-12T04:08:50.779Z,5.57
2022-09-12T04:11:16.679Z,5.82
2022-09-12T04:13:43.722Z,6.05
2022-09-12T04:16:07.883Z,6.65
2022-09-12T04:18:32.146Z,6.30
2022-09-12T04:20:55.770Z,5.55
2022-09-12T04:23:19.755Z,5.82
2022-09-12T04:25:43.277Z,6.15
2022-09-12T04:28:06.855Z,5.95
2022-09-12T04:30:31.813Z,5.32
2022-09-12T04:32:55.425Z,6.72
2022-09-12T04:35:19.016Z,6.25
2022-09-12T04:37:42.625Z,6.72
2022-09-12T04:40:07.411Z,7.15
2022-09-12T04:42:31.595Z,7.72
2022-09-12T04:44:55.107Z,6.95
2022-09-12T04:47:20.090Z,6.82
2022-09-12T04:49:43.655Z,7.20
2022-09-12T04:52:08.114Z,6.78
2022-09-12T04:54:31.657Z,7.05
2022-09-12T04:56:56.027Z,6.70
2022-09-12T04:59:21.570Z,5.93
2022-09-12T05:01:45.271Z,6.03
2022-09-12T05:04:12.023Z,5.32
2022-09-12T05:06:38.314Z,5.35
2022-09-12T05:09:03.531Z,6.15
2022-09-12T05:11:46.929Z,6.10
2022-09-12T05:14:13.464Z,6.00
2022-09-12T05:16:37.006Z,6.07
2022-09-12T05:19:01.302Z,5.60
2022-09-12T05:21:27.664Z,8.05
2022-09-12T05:23:53.115Z,6.78
2022-09-12T05:26:19.179Z,6.70
2022-09-12T05:28:43.744Z,6.55
2022-09-12T05:31:10.523Z,7.30
2022-09-12T05:33:35.222Z,6.93
2022-09-12T05:35:58.903Z,6.03
2022-09-12T05:38:24.975Z,6.78
2022-09-12T05:40:48.519Z,5.53
2022-09-12T05:43:12.522Z,6.70
2022-09-12T05:45:36.123Z,5.90
2022-09-12T05:47:59.675Z,6.43
2022-09-12T05:50:23.343Z,6.25
2022-09-12T05:52:47.130Z,6.22
2022-09-12T05:55:12.248Z,6.82
2022-09-12T05:57:36.474Z,8.00
2022-09-12T05:59:59.999Z,7.03
2022-09-12T06:02:23.711Z,6.30
2022-09-12T06:04:47.302Z,6.40
2022-09-12T06:07:11.013Z,6.10
2022-09-12T06:09:34.540Z,5.70
2022-09-12T06:11:59.503Z,6.10
2022-09-12T06:14:23.244Z,6.90
2022-09-12T06:16:47.488Z,13.07
2022-09-12T06:19:16.576Z,12.13
2022-09-12T06:21:40.138Z,10.75
2022-09-12T06:24:03.906Z,11.18
2022-09-12T06:26:29.273Z,9.90
2022-09-12T06:28:56.639Z,25.02
2022-09-12T06:31:23.146Z,10.32
2022-09-12T06:33:49.371Z,10.32
2022-09-12T06:36:16.096Z,17.38
2022-09-12T06:38:40.101Z,10.38
2022-09-12T06:41:06.751Z,9.05
2022-09-12T06:43:30.711Z,8.25
2022-09-12T06:45:56.330Z,8.10
2022-09-12T06:48:20.153Z,7.38
2022-09-12T06:50:43.992Z,8.40
2022-09-12T06:53:07.515Z,5.78
2022-09-12T06:55:31.136Z,5.22
2022-09-12T06:57:55.798Z,6.30
2022-09-12T07:00:19.627Z,5.88
2022-09-12T07:02:44.539Z,6.05
2022-09-12T07:05:09.446Z,7.78
2022-09-12T07:07:34.422Z,7.05
2022-09-12T07:09:58.479Z,7.70
2022-09-12T07:12:21.999Z,7.25
2022-09-12T07:14:45.603Z,6.80
2022-09-12T07:17:09.813Z,7.22
2022-09-12T07:19:34.987Z,6.78
2022-09-12T07:21:58.854Z,6.38
2022-09-12T07:24:22.520Z,6.20
2022-09-12T07:26:46.063Z,5.65
2022-09-12T07:29:35.772Z,6.30
2022-09-12T07:32:01.412Z,5.93
2022-09-12T07:34:24.919Z,5.80
2022-09-12T07:36:49.876Z,5.72
2022-09-12T07:39:13.477Z,5.80
2022-09-12T07:41:37.140Z,5.47
2022-09-12T07:44:03.056Z,5.15
2022-09-12T07:46:28.015Z,4.68
2022-09-12T07:48:52.494Z,4.15
2022-09-12T07:51:16.051Z,3.83
2022-09-12T07:53:43.400Z,3.70
2022-09-12T07:56:08.435Z,2.88
2022-09-12T07:58:33.226Z,3.25
2022-09-12T08:01:03.224Z,2.92
2022-09-12T08:03:26.839Z,2.80
2022-09-12T08:05:50.380Z,2.70
2022-09-12T08:08:13.967Z,2.30
2022-09-12T08:10:38.921Z,2.50
2022-09-12T08:13:03.096Z,2.33
2022-09-12T08:15:26.686Z,2.83
2022-09-12T08:17:50.215Z,2.80
2022-09-12T08:20:13.910Z,2.60
2022-09-12T08:22:37.451Z,2.60
2022-09-12T08:25:00.975Z,2.53
2022-09-12T08:27:25.973Z,1.92
2022-09-12T08:29:49.491Z,2.70
2022-09-12T08:32:13.043Z,3.08
2022-09-12T08:34:36.594Z,2.42
2022-09-12T08:37:00.171Z,2.58
2022-09-12T08:39:24.656Z,2.47
2022-09-12T08:41:50.110Z,2.05
2022-09-12T08:44:52.154Z,2.03
2022-09-12T08:47:25.278Z,1.80
2022-09-12T08:50:00.706Z,1.77
2022-09-12T08:52:32.002Z,1.95
2022-09-12T08:54:56.516Z,1.30
2022-09-12T08:57:20.411Z,1.35
2022-09-12T08:59:48.323Z,1.60
2022-09-12T09:02:38.955Z,1.65
2022-09-12T09:05:16.354Z,1.70
2022-09-12T09:08:24.059Z,1.63
2022-09-12T09:10:53.633Z,1.85
2022-09-12T09:13:51.846Z,1.50
2022-09-12T09:16:26.898Z,1.60
2022-09-12T09:18:52.559Z,1.75
2022-09-12T09:21:25.311Z,1.38
2022-09-12T09:23:54.988Z,1.50
2022-09-12T09:26:26.733Z,1.50
2022-09-12T09:28:55.602Z,1.73
2022-09-12T09:31:23.494Z,1.40
2022-09-12T09:33:51.939Z,1.50
2022-09-12T09:36:23.978Z,1.70
2022-09-12T09:38:51.394Z,1.60
2022-09-12T09:41:36.118Z,1.38
2022-09-12T09:44:01.025Z,1.50
2022-09-12T09:46:26.396Z,1.30
2022-09-12T09:48:51.879Z,1.58
2022-09-12T09:51:19.036Z,1.40
2022-09-12T09:53:50.025Z,1.30
2022-09-12T09:56:30.602Z,1.40
2022-09-12T09:58:54.300Z,1.20
2022-09-12T10:01:20.031Z,1.27
2022-09-12T10:03:51.253Z,1.50
2022-09-12T10:06:42.178Z,1.73
2022-09-12T10:09:18.934Z,1.30
2022-09-12T10:11:45.930Z,1.30
2022-09-12T10:14:31.539Z,1.40
2022-09-12T10:16:55.335Z,1.50
2022-09-12T10:19:25.087Z,1.50
2022-09-12T10:21:52.867Z,1.30
2022-09-12T10:24:24.893Z,1.40
2022-09-12T10:26:56.743Z,1.48
2022-09-12T10:29:28.032Z,1.80
2022-09-12T10:31:55.546Z,1.20
2022-09-12T10:34:33.538Z,1.00
2022-09-12T10:37:04.286Z,1.33
2022-09-12T10:39:28.352Z,2.03
2022-09-12T10:41:51.924Z,11.00
2022-09-12T10:44:18.827Z,1.17
2022-09-12T10:46:42.395Z,6.03
2022-09-12T10:49:28.043Z,2.55
2022-09-12T10:51:51.958Z,2.33
2022-09-12T10:54:20.998Z,1.58
2022-09-12T10:56:59.491Z,1.10
2022-09-12T10:59:35.191Z,9.63
2022-09-12T11:02:02.913Z,3.88
2022-09-12T11:04:43.241Z,6.90
2022-09-12T11:07:44.987Z,2.33
2022-09-12T11:10:27.295Z,1.13
2022-09-12T11:12:59.840Z,2.45
2022-09-12T11:15:38.635Z,2.55
2022-09-12T11:18:12.255Z,13.07
2022-09-12T11:20:55.092Z,3.78
2022-09-12T11:23:48.506Z,3.45
2022-09-12T11:26:28.368Z,1.20
2022-09-12T11:29:05.862Z,1.65
2022-09-12T11:32:16.355Z,0.85
2022-09-12T11:34:58.346Z,0.85
2022-09-12T11:37:44.736Z,1.00
2022-09-12T11:40:28.912Z,0.70
2022-09-12T11:42:57.558Z,0.70
2022-09-12T11:45:28.131Z,0.80
2022-09-12T11:47:56.858Z,0.70
2022-09-12T11:50:27.714Z,0.80
2022-09-12T11:52:53.963Z,0.80
2022-09-12T11:55:21.162Z,0.70
2022-09-12T11:57:49.188Z,0.85
2022-09-12T12:00:20.181Z,0.77
2022-09-12T12:02:55.418Z,0.95
2022-09-12T12:05:24.139Z,0.93
2022-09-12T12:07:56.319Z,0.90
2022-09-12T12:10:27.068Z,1.13
2022-09-12T12:12:51.847Z,0.90
2022-09-12T12:15:17.775Z,0.80
2022-09-12T12:17:41.478Z,0.90
2022-09-12T12:20:09.439Z,0.80
2022-09-12T12:22:33.762Z,0.90
2022-09-12T12:25:39.118Z,1.02
2022-09-12T12:28:05.480Z,1.10
2022-09-12T12:31:03.389Z,0.98
2022-09-12T12:34:15.282Z,1.27
2022-09-12T12:36:42.440Z,0.93
2022-09-12T12:40:03.081Z,1.08
2022-09-12T12:43:05.463Z,1.00
2022-09-12T12:46:14.604Z,0.88
2022-09-12T12:49:12.690Z,1.10
2022-09-12T12:51:58.099Z,0.80
2022-09-12T12:54:54.281Z,1.10
2022-09-12T12:57:24.539Z,0.80
2022-09-12T12:59:53.439Z,1.00
2022-09-12T13:02:24.487Z,1.00
2022-09-12T13:04:49.751Z,0.95
2022-09-12T13:07:29.421Z,1.10
2022-09-12T13:09:54.542Z,0.90
2022-09-12T13:12:23.256Z,0.80
2022-09-12T13:14:55.564Z,0.95
2022-09-12T13:17:29.888Z,1.00
2022-09-12T13:20:24.122Z,0.70
2022-09-12T13:22:48.378Z,1.08
2022-09-12T13:25:26.628Z,1.10
2022-09-12T13:28:18.537Z,0.93
2022-09-12T13:30:47.256Z,0.93
2022-09-12T13:33:22.885Z,0.98
2022-09-12T13:36:32.004Z,1.00
2022-09-12T13:39:16.531Z,2.17
2022-09-12T13:42:28.176Z,1.25
2022-09-12T13:44:55.747Z,1.38
2022-09-12T13:47:31.708Z,1.10
2022-09-12T13:49:56.355Z,1.05
2022-09-12T13:52:25.682Z,1.50
2022-09-12T13:54:54.769Z,1.10
2022-09-12T13:57:37.701Z,1.15
2022-09-12T14:00:06.342Z,1.10
2022-09-12T14:02:31.528Z,1.17
2022-09-12T14:05:13.601Z,1.00
2022-09-12T14:07:55.286Z,1.30
2022-09-12T14:10:28.189Z,1.50
2022-09-12T14:12:52.894Z,1.95
2022-09-12T14:15:24.533Z,1.10
2022-09-12T14:17:54.815Z,1.63
2022-09-12T14:20:19.916Z,1.20
2022-09-12T14:22:45.589Z,1.10
2022-09-12T14:25:17.104Z,1.20
2022-09-12T14:27:45.800Z,1.15
2022-09-12T14:30:23.809Z,1.20
2022-09-12T14:33:06.847Z,1.20
2022-09-12T14:35:30.584Z,1.20
2022-09-12T14:37:54.179Z,1.10
2022-09-12T14:40:21.952Z,1.63
2022-09-12T14:42:46.802Z,1.10
2022-09-12T14:45:18.288Z,1.02
2022-09-12T14:47:44.455Z,1.10
2022-09-12T14:50:19.561Z,1.40
2022-09-12T14:52:44.749Z,0.98
2022-09-12T14:55:33.857Z,1.38
2022-09-12T14:58:18.076Z,1.38
2022-09-12T15:00:59.595Z,1.10
2022-09-12T15:03:29.890Z,1.20
2022-09-12T15:05:55.232Z,1.10
2022-09-12T15:08:18.833Z,1.73
2022-09-12T15:10:42.433Z,1.90
2022-09-12T15:13:23.952Z,2.25
2022-09-12T15:15:51.188Z,1.25
2022-09-12T15:18:14.986Z,1.40
2022-09-12T15:20:40.160Z,1.45
2022-09-12T15:23:06.063Z,1.20
2022-09-12T15:25:29.670Z,1.10
2022-09-12T15:27:56.066Z,1.10
2022-09-12T15:30:19.765Z,1.40
2022-09-12T15:32:45.907Z,1.45
2022-09-12T15:35:13.535Z,1.13
2022-09-12T15:37:37.084Z,1.30
2022-09-12T15:40:02.706Z,1.30
2022-09-12T15:42:31.399Z,1.00
2022-09-12T15:44:58.394Z,1.17
2022-09-12T15:47:24.216Z,1.13
2022-09-12T15:49:47.740Z,1.20
2022-09-12T15:52:16.664Z,1.30
2022-09-12T15:54:41.082Z,1.40
2022-09-12T15:57:06.412Z,1.20
2022-09-12T15:59:31.105Z,1.20
2022-09-12T16:01:54.688Z,1.27
2022-09-12T16:04:23.831Z,1.40
2022-09-12T16:06:47.378Z,1.30
2022-09-12T16:09:16.062Z,3.30
2022-09-12T16:11:40.329Z,3.47
2022-09-12T16:14:06.713Z,2.72
2022-09-12T16:16:30.234Z,3.13
2022-09-12T16:18:53.887Z,2.92
2022-09-12T16:21:17.525Z,2.50
2022-09-12T16:23:43.508Z,2.50
2022-09-12T16:26:08.302Z,2.50
2022-09-12T16:28:33.275Z,2.33
2022-09-12T16:30:58.882Z,2.30
2022-09-12T16:33:22.444Z,2.60
2022-09-12T16:35:45.963Z,2.10
2022-09-12T16:38:09.528Z,1.95
2022-09-12T16:40:33.050Z,1.90
2022-09-12T16:42:56.600Z,2.10
2022-09-12T16:45:19.893Z,2.20
2022-09-12T16:47:45.050Z,2.00
2022-09-12T16:50:09.971Z,2.28
2022-09-12T16:52:35.111Z,2.10
2022-09-12T16:54:58.720Z,2.42
2022-09-12T16:57:22.882Z,2.20
2022-09-12T16:59:46.494Z,2.15
2022-09-12T17:02:12.695Z,1.90
2022-09-12T17:04:37.610Z,2.17
2022-09-12T17:07:01.126Z,1.90
2022-09-12T17:09:24.774Z,1.80
2022-09-12T17:11:50.209Z,2.05
2022-09-12T17:14:13.802Z,1.77
2022-09-12T17:16:39.669Z,2.63
2022-09-12T17:19:03.563Z,2.80
2022-09-12T17:21:28.656Z,2.67
2022-09-12T17:23:52.300Z,2.22
2022-09-12T17:26:16.195Z,2.60
2022-09-12T17:28:40.907Z,2.50
2022-09-12T17:31:07.196Z,2.53
2022-09-12T17:33:32.086Z,2.35
2022-09-12T17:35:56.384Z,2.38
2022-09-12T17:38:25.252Z,2.45
2022-09-12T17:40:59.400Z,2.40
2022-09-12T17:43:23.243Z,2.85
2022-09-12T17:45:46.782Z,3.00
2022-09-12T17:48:12.689Z,2.47
2022-09-12T17:50:39.381Z,2.30
2022-09-12T17:53:03.347Z,2.70
2022-09-12T17:55:32.074Z,2.10
2022-09-12T17:57:55.901Z,2.70
2022-09-12T18:00:40.528Z,3.10
2022-09-12T18:03:03.129Z,2.80
2022-09-12T18:05:26.703Z,3.22
2022-09-12T18:07:50.259Z,3.38
2022-09-12T18:10:13.873Z,2.97
2022-09-12T18:12:38.879Z,2.65
2022-09-12T18:15:02.404Z,3.28
2022-09-12T18:17:25.992Z,5.18
2022-09-12T18:19:53.476Z,5.20
2022-09-12T18:22:17.431Z,6.68
2022-09-12T18:24:41.344Z,5.40
2022-09-12T18:27:05.243Z,4.20
2022-09-12T18:29:30.161Z,3.50
2022-09-12T18:31:53.763Z,3.35
2022-09-12T18:34:18.431Z,3.05
2022-09-12T18:36:42.235Z,3.25
2022-09-12T18:39:05.844Z,2.72
2022-09-12T18:41:29.967Z,2.80
2022-09-12T18:43:56.655Z,2.97
2022-09-12T18:46:21.963Z,5.50
2022-09-12T18:48:46.714Z,10.10
2022-09-12T18:51:14.711Z,14.48
2022-09-12T18:53:38.965Z,13.20
2022-09-12T18:56:04.688Z,9.23
2022-09-12T18:58:28.330Z,22.33
2022-09-12T19:00:51.976Z,20.75
2022-09-12T19:03:16.939Z,16.55
2022-09-12T19:05:40.703Z,16.98
2022-09-12T19:08:04.922Z,13.98
2022-09-12T19:10:28.466Z,11.40
2022-09-12T19:12:51.984Z,9.77
2022-09-12T19:15:15.556Z,9.05
2022-09-12T19:17:39.082Z,8.90
2022-09-12T19:20:04.914Z,10.32
2022-09-12T19:22:28.610Z,9.07
2022-09-12T19:24:52.171Z,9.65
2022-09-12T19:27:16.151Z,9.30
2022-09-12T19:29:39.747Z,8.73
2022-09-12T19:32:03.977Z,7.82
2022-09-12T19:34:28.124Z,6.22
2022-09-12T19:36:54.604Z,6.25
2022-09-12T19:39:19.825Z,5.90
2022-09-12T19:41:43.689Z,5.13
2022-09-12T19:44:07.403Z,4.45
2022-09-12T19:46:30.972Z,4.82
2022-09-12T19:48:55.444Z,4.78
2022-09-12T19:51:19.895Z,4.60
2022-09-12T19:53:45.513Z,4.57
2022-09-12T19:56:11.893Z,4.38
2022-09-12T19:58:41.059Z,4.57
2022-09-12T20:01:11.896Z,5.20
2022-09-12T20:03:35.514Z,4.97
2022-09-12T20:06:03.901Z,4.90
2022-09-12T20:08:27.494Z,5.32
2022-09-12T20:10:56.859Z,5.32
2022-09-12T20:13:20.671Z,5.03
2022-09-12T20:15:44.282Z,4.78
2022-09-12T20:18:07.884Z,4.78
2022-09-12T20:20:32.736Z,4.78
2022-09-12T20:22:56.422Z,4.55
2022-09-12T20:25:20.690Z,5.72
2022-09-12T20:27:45.681Z,5.88
2022-09-12T20:30:11.311Z,5.35
2022-09-12T20:32:34.948Z,6.32
2022-09-12T20:34:58.520Z,5.32
2022-09-12T20:37:22.256Z,5.40
2022-09-12T20:39:49.013Z,5.22
2022-09-12T20:42:14.490Z,5.60
2022-09-12T20:44:39.395Z,5.53
2022-09-12T20:47:03.020Z,5.97
2022-09-12T20:49:26.584Z,5.97
2022-09-12T20:51:50.243Z,5.72
2022-09-12T20:54:13.815Z,6.38
2022-09-12T20:56:39.041Z,5.88
2022-09-12T20:59:03.257Z,5.88
2022-09-12T21:01:30.050Z,5.68
2022-09-12T21:03:54.225Z,6.35
2022-09-12T21:06:18.394Z,6.03
2022-09-12T21:08:42.153Z,5.47
2022-09-12T21:11:06.747Z,6.35
2022-09-12T21:13:30.919Z,6.00
2022-09-12T21:16:00.123Z,6.30
2022-09-12T21:18:25.171Z,6.38
2022-09-12T21:20:53.726Z,6.00
2022-09-12T21:23:17.289Z,6.82
2022-09-12T21:25:40.857Z,5.82
2022-09-12T21:28:04.441Z,6.32
2022-09-12T21:30:28.080Z,6.60
2022-09-12T21:32:51.760Z,6.45
2022-09-12T21:35:17.055Z,6.90
2022-09-12T21:37:40.701Z,6.45
2022-09-12T21:40:05.640Z,6.43
2022-09-12T21:42:29.382Z,6.88
2022-09-12T21:44:53.023Z,7.05
2022-09-12T21:47:16.613Z,6.43
2022-09-12T21:49:40.250Z,7.38
2022-09-12T21:52:05.675Z,6.40
2022-09-12T21:54:29.286Z,6.53
2022-09-12T21:56:53.134Z,6.57
2022-09-12T21:59:16.713Z,6.82
2022-09-12T22:01:40.333Z,7.47
2022-09-12T22:04:04.651Z,7.63
2022-09-12T22:06:28.243Z,6.93
2022-09-12T22:08:53.195Z,7.10
2022-09-12T22:11:19.364Z,6.60
2022-09-12T22:13:44.014Z,7.25
2022-09-12T22:16:08.119Z,6.70
2022-09-12T22:18:33.896Z,6.45
2022-09-12T22:21:02.804Z,6.68
2022-09-12T22:23:43.579Z,7.63
2022-09-12T22:26:09.503Z,7.57
2022-09-12T22:28:33.453Z,6.65
2022-09-12T22:30:57.446Z,7.00
2022-09-12T22:33:21.046Z,7.40
2022-09-12T22:35:44.637Z,6.93
2022-09-12T22:38:08.173Z,7.50
2022-09-12T22:40:31.768Z,7.35
2022-09-12T22:42:56.673Z,7.18
2022-09-12T22:45:20.402Z,8.00
2022-09-12T22:47:43.937Z,7.65
2022-09-12T22:50:09.077Z,7.50
2022-09-12T22:52:32.609Z,7.22
2022-09-12T22:54:56.226Z,8.55
2022-09-12T22:57:19.978Z,8.68
2022-09-12T22:59:44.934Z,7.80
2022-09-12T23:02:08.563Z,8.75
2022-09-12T23:04:32.905Z,8.05
2022-09-12T23:06:56.965Z,9.50
2022-09-12T23:09:20.544Z,10.50
2022-09-12T23:11:44.113Z,9.32
2022-09-12T23:14:07.719Z,9.50
2022-09-12T23:16:32.722Z,9.95
2022-09-12T23:18:56.634Z,8.70
2022-09-12T23:21:22.608Z,9.32
2022-09-12T23:23:46.682Z,8.55
2022-09-12T23:26:13.788Z,8.18
2022-09-12T23:28:38.177Z,8.60
2022-09-12T23:31:01.990Z,8.30
2022-09-12T23:33:27.419Z,8.20
2022-09-12T23:35:51.146Z,8.15
2022-09-12T23:38:14.909Z,9.02
2022-09-12T23:40:38.457Z,7.45
2022-09-12T23:43:02.114Z,7.43
2022-09-12T23:45:25.796Z,7.30
2022-09-12T23:47:49.442Z,7.38
2022-09-12T23:50:14.370Z,7.32
2022-09-12T23:52:37.962Z,8.30
2022-09-12T23:55:01.465Z,8.30
2022-09-12T23:57:25.052Z,7.32
2022-09-12T23:59:48.570Z,7.95
